Time;durP1;ratioP1;P1;durP2;ratioP2;P2;SDS_P1;SDS_P2;PMS_P1;PMS_P2;Temp;Humidity;BMP_temperature;BMP_pressure;BME280_temperature;BME280_humidity;BME280_pressure;Samples;Min_cycle;Max_cycle;Signal;HPM_P1;HPM_P2
2023/12/24 00:00:56;;;;;;;12.02;8.70;;;;;;;;;;6299758;28;20051;-72
2023/12/24 00:03:58;;;;;;;15.77;8.40;;;;;;;;;;6321815;28;20043;-72
2023/12/24 00:07:00;;;;;;;14.95;7.97;;;;;;;;;;6322669;28;20046;-72
2023/12/24 00:10:02;;;;;;;18.80;9.48;;;;;;;;;;6313520;28;20323;-72
2023/12/24 00:13:04;;;;;;;14.35;9.55;;;;;;;;;;6293991;28;20066;-72
2023/12/24 00:16:06;;;;;;;16.00;9.65;;;;;;;;;;6303307;28;20513;-72
2023/12/24 00:19:09;;;;;;;13.85;10.18;;;;;;;;;;6304751;28;20491;-72
2023/12/24 00:22:12;;;;;;;17.40;10.32;;;;;;;;;;6315424;28;20040;-72
2023/12/24 00:25:14;;;;;;;18.40;11.05;;;;;;;;;;6309848;28;20139;-72
2023/12/24 00:28:16;;;;;;;17.63;10.25;;;;;;;;;;6275362;28;20059;-72
2023/12/24 00:31:18;;;;;;;20.10;11.07;;;;;;;;;;6303682;28;20051;-72
2023/12/24 00:34:20;;;;;;;17.38;10.95;;;;;;;;;;6294760;28;20036;-72
2023/12/24 00:37:23;;;;;;;15.45;10.75;;;;;;;;;;6299469;28;20118;-72
2023/12/24 00:40:25;;;;;;;16.13;9.23;;;;;;;;;;6337322;27;20051;-73
2023/12/24 00:43:27;;;;;;;18.17;9.98;;;;;;;;;;6293396;28;20048;-73
2023/12/24 00:46:30;;;;;;;21.80;11.40;;;;;;;;;;6310548;28;20525;-72
2023/12/24 00:49:32;;;;;;;23.08;13.35;;;;;;;;;;6301508;28;20116;-73
2023/12/24 00:52:37;;;;;;;29.20;16.35;;;;;;;;;;6312169;28;20556;-73
2023/12/24 00:55:41;;;;;;;24.00;14.68;;;;;;;;;;6315453;28;20036;-73
2023/12/24 00:58:44;;;;;;;21.40;13.63;;;;;;;;;;6306535;28;20853;-72
2023/12/24 01:01:47;;;;;;;15.60;10.45;;;;;;;;;;6299764;28;20059;-72
2023/12/24 01:04:49;;;;;;;14.52;10.43;;;;;;;;;;6297129;28;20115;-73
2023/12/24 01:07:51;;;;;;;16.23;10.48;;;;;;;;;;6321722;28;20036;-73
2023/12/24 01:10:53;;;;;;;18.55;10.50;;;;;;;;;;6301183;28;20071;-73
2023/12/24 01:13:55;;;;;;;17.90;11.38;;;;;;;;;;6317424;28;20468;-73
2023/12/24 01:16:59;;;;;;;19.63;10.30;;;;;;;;;;6290838;28;20455;-73
2023/12/24 01:20:01;;;;;;;17.88;10.55;;;;;;;;;;6288407;28;20036;-72
2023/12/24 01:23:03;;;;;;;16.75;9.57;;;;;;;;;;6296659;28;20842;-72
2023/12/24 01:26:07;;;;;;;20.83;11.38;;;;;;;;;;6302130;28;20040;-72
2023/12/24 01:29:10;;;;;;;54.08;26.90;;;;;;;;;;6303234;28;20055;-73
2023/12/24 01:32:14;;;;;;;28.90;16.45;;;;;;;;;;6311746;28;20044;-74
2023/12/24 01:35:16;;;;;;;27.17;16.33;;;;;;;;;;6286609;28;20044;-73
2023/12/24 01:38:19;;;;;;;31.33;16.20;;;;;;;;;;6284818;28;20784;-73
2023/12/24 01:41:21;;;;;;;35.08;18.98;;;;;;;;;;6300567;28;20103;-72
2023/12/24 01:44:23;;;;;;;57.58;30.83;;;;;;;;;;6299794;28;20135;-73
2023/12/24 01:47:25;;;;;;;46.03;25.75;;;;;;;;;;6292157;28;20040;-73
2023/12/24 01:50:28;;;;;;;20.63;12.27;;;;;;;;;;6300023;28;20096;-73
2023/12/24 01:53:31;;;;;;;18.05;9.13;;;;;;;;;;6333611;27;20534;-74
2023/12/24 01:56:33;;;;;;;15.35;9.30;;;;;;;;;;6283171;28;20134;-72
2023/12/24 01:59:36;;;;;;;16.95;8.95;;;;;;;;;;6312382;28;20044;-73
2023/12/24 02:02:38;;;;;;;16.35;9.18;;;;;;;;;;6281389;28;20047;-73
2023/12/24 02:05:41;;;;;;;14.80;9.88;;;;;;;;;;6278421;28;20071;-73
2023/12/24 02:08:44;;;;;;;19.02;12.05;;;;;;;;;;6292614;28;20431;-73
2023/12/24 02:11:46;;;;;;;21.15;12.07;;;;;;;;;;6305072;28;20177;-73
2023/12/24 02:14:49;;;;;;;17.83;11.30;;;;;;;;;;6307488;28;20075;-72
2023/12/24 02:17:51;;;;;;;18.88;10.43;;;;;;;;;;6298919;28;20169;-73
2023/12/24 02:21:04;;;;;;;14.55;8.98;;;;;;;;;;6324008;27;20109;-73
2023/12/24 02:24:07;;;;;;;14.98;10.18;;;;;;;;;;6279278;28;20100;-73
2023/12/24 02:27:19;;;;;;;14.10;8.60;;;;;;;;;;6300224;28;20039;-72
2023/12/24 02:30:34;;;;;;;11.73;8.38;;;;;;;;;;6313585;28;20159;-72
2023/12/24 02:33:40;;;;;;;12.52;7.18;;;;;;;;;;6297828;28;20044;-73
2023/12/24 02:36:48;;;;;;;9.57;6.30;;;;;;;;;;6302863;28;20506;-73
2023/12/24 02:39:50;;;;;;;8.57;5.20;;;;;;;;;;6273773;28;20088;-73
2023/12/24 02:42:52;;;;;;;9.82;5.85;;;;;;;;;;6296629;28;20065;-73
2023/12/24 02:45:55;;;;;;;9.13;4.65;;;;;;;;;;6319887;28;20042;-73
2023/12/24 02:48:57;;;;;;;9.57;5.32;;;;;;;;;;6293784;28;20859;-73
2023/12/24 02:51:59;;;;;;;11.48;6.55;;;;;;;;;;6299507;28;20522;-72
2023/12/24 02:55:01;;;;;;;11.32;4.43;;;;;;;;;;6300392;28;20052;-73
2023/12/24 02:58:04;;;;;;;18.77;6.05;;;;;;;;;;6264106;28;20071;-72
2023/12/24 03:01:07;;;;;;;14.10;7.07;;;;;;;;;;6295394;28;20036;-73
2023/12/24 03:04:10;;;;;;;6.97;4.45;;;;;;;;;;6314760;28;20124;-73
2023/12/24 03:07:12;;;;;;;7.63;3.90;;;;;;;;;;6281668;28;20036;-73
2023/12/24 03:10:14;;;;;;;12.27;6.07;;;;;;;;;;6296614;28;20044;-73
2023/12/24 03:13:16;;;;;;;12.70;5.90;;;;;;;;;;6283643;28;20047;-73
2023/12/24 03:16:19;;;;;;;5.43;4.10;;;;;;;;;;6294811;28;20511;-72
2023/12/24 03:19:22;;;;;;;6.18;4.05;;;;;;;;;;6324041;28;20048;-73
2023/12/24 03:22:24;;;;;;;5.00;3.28;;;;;;;;;;6302866;28;20047;-72
2023/12/24 03:25:26;;;;;;;6.57;3.10;;;;;;;;;;6289619;28;20518;-73
2023/12/24 03:28:28;;;;;;;6.30;3.90;;;;;;;;;;6319138;28;20515;-73
2023/12/24 03:31:30;;;;;;;5.45;3.78;;;;;;;;;;6307913;28;20753;-73
2023/12/24 03:34:32;;;;;;;4.50;3.10;;;;;;;;;;6297234;28;20048;-73
2023/12/24 03:37:35;;;;;;;9.52;4.10;;;;;;;;;;6316291;28;20036;-73
2023/12/24 03:40:37;;;;;;;10.73;5.00;;;;;;;;;;6280670;28;20059;-73
2023/12/24 03:43:39;;;;;;;8.73;4.40;;;;;;;;;;6316171;28;20067;-73
2023/12/24 03:46:41;;;;;;;9.43;4.13;;;;;;;;;;6319148;28;20788;-73
2023/12/24 03:49:43;;;;;;;4.95;3.15;;;;;;;;;;6315386;28;20047;-73
2023/12/24 03:52:45;;;;;;;9.43;4.70;;;;;;;;;;6299816;28;20046;-73
2023/12/24 03:55:47;;;;;;;6.38;3.42;;;;;;;;;;6298360;28;20146;-72
2023/12/24 03:58:49;;;;;;;5.60;3.33;;;;;;;;;;6319026;28;20032;-73
2023/12/24 04:01:53;;;;;;;6.55;4.07;;;;;;;;;;6315715;28;20040;-73
2023/12/24 04:04:56;;;;;;;5.32;3.15;;;;;;;;;;6324711;28;20090;-73
2023/12/24 04:07:58;;;;;;;4.97;2.58;;;;;;;;;;6309282;28;20071;-73
2023/12/24 04:11:00;;;;;;;3.65;2.22;;;;;;;;;;6317784;28;20047;-73
2023/12/24 04:14:02;;;;;;;5.70;3.15;;;;;;;;;;6298380;28;20055;-73
2023/12/24 04:17:05;;;;;;;12.07;5.93;;;;;;;;;;6302373;28;20038;-73
2023/12/24 04:20:08;;;;;;;11.50;6.85;;;;;;;;;;6295425;28;20042;-73
2023/12/24 04:23:10;;;;;;;5.25;3.45;;;;;;;;;;6305735;28;20047;-73
2023/12/24 04:26:12;;;;;;;4.22;2.00;;;;;;;;;;6279705;28;20438;-73
2023/12/24 04:29:14;;;;;;;5.72;2.38;;;;;;;;;;6276180;28;20475;-73
2023/12/24 04:32:20;;;;;;;2.35;1.77;;;;;;;;;;6320982;27;20052;-73
2023/12/24 04:35:22;;;;;;;3.67;2.47;;;;;;;;;;6303857;28;20048;-73
2023/12/24 04:38:24;;;;;;;5.95;2.88;;;;;;;;;;6259919;28;20044;-73
2023/12/24 04:41:29;;;;;;;2.55;1.95;;;;;;;;;;6296091;28;20079;-73
2023/12/24 04:44:37;;;;;;;3.10;2.35;;;;;;;;;;6334627;27;20036;-73
2023/12/24 04:47:42;;;;;;;4.40;2.70;;;;;;;;;;6296231;28;20040;-73
2023/12/24 04:50:46;;;;;;;3.60;2.15;;;;;;;;;;6319239;28;20040;-73
2023/12/24 04:53:48;;;;;;;5.47;2.90;;;;;;;;;;6319287;28;20043;-73
2023/12/24 04:56:50;;;;;;;4.05;2.40;;;;;;;;;;6313228;28;20055;-72
2023/12/24 04:59:52;;;;;;;5.45;2.67;;;;;;;;;;6292149;28;20426;-72
2023/12/24 05:02:55;;;;;;;5.47;2.83;;;;;;;;;;6305110;28;20075;-72
2023/12/24 05:05:57;;;;;;;4.57;2.17;;;;;;;;;;6295866;28;20127;-73
2023/12/24 05:08:59;;;;;;;6.72;4.43;;;;;;;;;;6299990;28;20118;-73
2023/12/24 05:12:02;;;;;;;4.88;2.92;;;;;;;;;;6275960;28;20629;-73
2023/12/24 05:15:04;;;;;;;6.50;3.10;;;;;;;;;;6292342;28;20071;-72
2023/12/24 05:18:07;;;;;;;6.20;4.18;;;;;;;;;;6292959;28;20036;-71
2023/12/24 05:21:10;;;;;;;8.30;3.85;;;;;;;;;;6318309;28;20047;-72
2023/12/24 05:24:12;;;;;;;5.63;3.83;;;;;;;;;;6292593;28;20135;-73
2023/12/24 05:27:14;;;;;;;7.65;4.00;;;;;;;;;;6310751;28;20462;-72
2023/12/24 05:30:16;;;;;;;4.57;4.18;;;;;;;;;;6306684;28;20048;-72
2023/12/24 05:33:18;;;;;;;4.85;2.60;;;;;;;;;;6316119;28;20043;-73
2023/12/24 05:36:21;;;;;;;5.72;2.78;;;;;;;;;;6297066;28;20122;-73
2023/12/24 05:39:23;;;;;;;4.38;2.40;;;;;;;;;;6296335;28;20052;-73
2023/12/24 05:42:25;;;;;;;6.07;3.08;;;;;;;;;;6309000;28;20560;-72
2023/12/24 05:45:27;;;;;;;4.32;2.92;;;;;;;;;;6313814;28;20050;-71
2023/12/24 05:48:29;;;;;;;6.97;4.10;;;;;;;;;;6295081;28;20043;-72
2023/12/24 05:51:31;;;;;;;7.82;4.53;;;;;;;;;;6297814;28;20048;-73
2023/12/24 05:54:34;;;;;;;4.25;2.55;;;;;;;;;;6298350;28;20048;-72
2023/12/24 05:57:36;;;;;;;8.65;4.22;;;;;;;;;;6301932;28;20055;-72
2023/12/24 06:00:38;;;;;;;6.65;4.00;;;;;;;;;;6313220;28;20044;-71
2023/12/24 06:03:41;;;;;;;4.03;2.70;;;;;;;;;;6311904;28;20039;-72
2023/12/24 06:06:44;;;;;;;5.03;2.53;;;;;;;;;;6293251;28;20051;-73
2023/12/24 06:09:46;;;;;;;5.88;3.92;;;;;;;;;;6300009;28;20059;-73
2023/12/24 06:12:51;;;;;;;5.03;2.88;;;;;;;;;;6302989;28;20059;-72
2023/12/24 06:15:54;;;;;;;5.55;3.95;;;;;;;;;;6293175;28;20067;-71
2023/12/24 06:18:56;;;;;;;4.75;2.80;;;;;;;;;;6309098;28;20080;-72
2023/12/24 06:22:00;;;;;;;6.07;3.50;;;;;;;;;;6297450;28;20839;-72
2023/12/24 06:25:02;;;;;;;5.22;3.28;;;;;;;;;;6297148;28;20194;-71
2023/12/24 06:28:04;;;;;;;5.90;3.65;;;;;;;;;;6294059;28;20138;-71
2023/12/24 06:31:08;;;;;;;6.78;5.63;;;;;;;;;;6291842;28;20085;-71
2023/12/24 06:34:11;;;;;;;11.05;4.85;;;;;;;;;;6316630;28;20784;-71
2023/12/24 06:37:13;;;;;;;7.70;3.72;;;;;;;;;;6292657;28;20088;-71
2023/12/24 06:40:16;;;;;;;6.82;3.97;;;;;;;;;;6319426;28;20051;-72
2023/12/24 06:43:18;;;;;;;6.25;2.95;;;;;;;;;;6321017;28;20047;-72
2023/12/24 06:46:20;;;;;;;3.60;2.28;;;;;;;;;;6308290;28;20047;-72
2023/12/24 06:49:22;;;;;;;5.55;3.13;;;;;;;;;;6311353;28;20059;-72
2023/12/24 06:52:27;;;;;;;6.68;3.58;;;;;;;;;;6308741;28;20597;-72
2023/12/24 06:55:29;;;;;;;5.15;3.05;;;;;;;;;;6314614;28;20566;-72
2023/12/24 06:58:31;;;;;;;6.85;4.40;;;;;;;;;;6297023;28;20055;-72
2023/12/24 07:01:33;;;;;;;3.90;2.13;;;;;;;;;;6288750;28;20048;-72
2023/12/24 07:04:35;;;;;;;57.75;27.73;;;;;;;;;;6315269;28;20048;-71
2023/12/24 07:07:38;;;;;;;69.70;33.55;;;;;;;;;;6299343;28;20585;-72
2023/12/24 07:10:40;;;;;;;13.23;7.72;;;;;;;;;;6293930;28;20044;-73
2023/12/24 07:13:43;;;;;;;9.18;4.53;;;;;;;;;;6292264;28;20051;-72
2023/12/24 07:16:45;;;;;;;39.72;18.98;;;;;;;;;;6317078;28;20048;-71
2023/12/24 07:19:47;;;;;;;22.05;9.02;;;;;;;;;;6316984;28;20819;-71
2023/12/24 07:22:49;;;;;;;8.98;4.55;;;;;;;;;;6318165;28;20059;-72
2023/12/24 07:25:52;;;;;;;7.13;4.57;;;;;;;;;;6307227;28;20040;-73
2023/12/24 07:28:54;;;;;;;9.65;6.72;;;;;;;;;;6303468;28;20036;-73
2023/12/24 07:31:56;;;;;;;9.50;5.80;;;;;;;;;;6321066;28;20051;-73
2023/12/24 07:34:58;;;;;;;17.50;10.00;;;;;;;;;;6363698;27;20099;-71
2023/12/24 07:38:01;;;;;;;17.45;9.52;;;;;;;;;;6323258;28;20047;-72
2023/12/24 07:41:03;;;;;;;15.18;8.65;;;;;;;;;;6301783;28;20044;-72
2023/12/24 07:44:08;;;;;;;41.83;18.98;;;;;;;;;;6301810;28;20054;-72
2023/12/24 07:47:11;;;;;;;13.27;7.70;;;;;;;;;;6313984;28;20063;-72
2023/12/24 07:50:13;;;;;;;60.80;30.08;;;;;;;;;;6313989;28;20686;-72
2023/12/24 07:53:15;;;;;;;33.17;21.63;;;;;;;;;;6310516;28;20149;-71
2023/12/24 07:56:17;;;;;;;12.23;7.00;;;;;;;;;;6311120;28;20044;-72
2023/12/24 07:59:19;;;;;;;6.93;4.38;;;;;;;;;;6312464;28;20134;-71
2023/12/24 08:02:21;;;;;;;4.25;2.72;;;;;;;;;;6293121;28;20132;-72
2023/12/24 08:05:24;;;;;;;8.57;5.00;;;;;;;;;;6268393;28;20101;-72
2023/12/24 08:08:26;;;;;;;14.48;6.80;;;;;;;;;;6311560;28;20530;-72
2023/12/24 08:11:29;;;;;;;9.02;3.63;;;;;;;;;;6298498;28;20055;-72
2023/12/24 08:14:31;;;;;;;7.85;4.40;;;;;;;;;;6287630;28;20510;-72
2023/12/24 08:17:33;;;;;;;14.50;6.18;;;;;;;;;;6311778;28;20110;-72
2023/12/24 08:20:36;;;;;;;8.57;4.78;;;;;;;;;;6314107;28;20090;-72
2023/12/24 08:23:38;;;;;;;11.10;6.43;;;;;;;;;;6292452;28;20057;-72
2023/12/24 08:26:43;;;;;;;24.30;9.10;;;;;;;;;;6310237;28;20588;-73
2023/12/24 08:29:46;;;;;;;9.48;4.47;;;;;;;;;;6311114;28;20503;-71
2023/12/24 08:32:48;;;;;;;19.20;10.05;;;;;;;;;;6297160;28;20056;-72
2023/12/24 08:35:51;;;;;;;15.38;7.68;;;;;;;;;;6317759;28;20189;-72
2023/12/24 08:38:53;;;;;;;5.13;2.78;;;;;;;;;;6279980;28;20044;-72
2023/12/24 08:41:55;;;;;;;6.90;3.05;;;;;;;;;;6320123;28;20523;-71
2023/12/24 08:44:59;;;;;;;11.35;4.55;;;;;;;;;;6291669;28;20149;-71
2023/12/24 08:48:01;;;;;;;5.13;2.92;;;;;;;;;;6315324;28;20990;-72
2023/12/24 08:51:04;;;;;;;4.38;2.58;;;;;;;;;;6310225;28;20044;-72
2023/12/24 08:54:06;;;;;;;6.82;3.40;;;;;;;;;;6310698;28;20150;-72
2023/12/24 08:57:08;;;;;;;6.35;2.63;;;;;;;;;;6294364;28;20044;-72
2023/12/24 09:00:11;;;;;;;9.10;2.03;;;;;;;;;;6295455;28;20048;-72
2023/12/24 09:03:16;;;;;;;6.53;2.90;;;;;;;;;;6317645;28;20043;-72
2023/12/24 09:06:18;;;;;;;5.78;1.90;;;;;;;;;;6292457;28;20040;-73
2023/12/24 09:09:21;;;;;;;4.60;3.25;;;;;;;;;;6301595;28;20036;-73
2023/12/24 09:12:23;;;;;;;4.90;2.42;;;;;;;;;;6292751;28;20052;-72
2023/12/24 09:15:25;;;;;;;4.97;3.50;;;;;;;;;;6272504;28;20439;-72
2023/12/24 09:18:27;;;;;;;3.33;1.75;;;;;;;;;;6292909;28;20741;-72
2023/12/24 09:21:29;;;;;;;5.68;3.13;;;;;;;;;;6279171;28;20115;-72
2023/12/24 09:24:31;;;;;;;5.38;3.17;;;;;;;;;;6310145;28;20114;-73
2023/12/24 09:27:33;;;;;;;12.45;5.22;;;;;;;;;;6288696;28;20773;-73
2023/12/24 09:30:35;;;;;;;4.70;2.72;;;;;;;;;;6282703;28;20153;-72
2023/12/24 09:33:37;;;;;;;9.43;4.30;;;;;;;;;;6297250;28;20063;-72
2023/12/24 09:36:39;;;;;;;14.23;5.88;;;;;;;;;;6300398;28;20051;-72
2023/12/24 09:39:43;;;;;;;5.50;2.20;;;;;;;;;;6312516;28;20048;-72
2023/12/24 09:42:45;;;;;;;8.23;4.85;;;;;;;;;;6317646;28;20043;-73
2023/12/24 09:45:47;;;;;;;10.80;5.47;;;;;;;;;;6295514;28;20562;-73
2023/12/24 09:48:49;;;;;;;8.05;2.28;;;;;;;;;;6309273;28;20040;-72
2023/12/24 09:51:52;;;;;;;8.85;3.92;;;;;;;;;;6268101;28;20048;-71
2023/12/24 09:54:55;;;;;;;5.80;4.07;;;;;;;;;;6296563;28;20580;-71
2023/12/24 09:57:57;;;;;;;2.40;1.35;;;;;;;;;;6308096;28;20079;-71
2023/12/24 10:00:59;;;;;;;12.10;3.50;;;;;;;;;;6319821;28;20054;-71
2023/12/24 10:04:02;;;;;;;3.60;1.60;;;;;;;;;;6321793;28;20051;-73
2023/12/24 10:07:06;;;;;;;11.45;3.15;;;;;;;;;;6273175;28;20156;-71
2023/12/24 10:10:11;;;;;;;16.27;5.07;;;;;;;;;;6307964;28;20035;-71
2023/12/24 10:13:13;;;;;;;8.63;3.70;;;;;;;;;;6306294;28;20036;-73
2023/12/24 10:16:15;;;;;;;6.93;3.17;;;;;;;;;;6271131;28;20048;-72
2023/12/24 10:19:24;;;;;;;13.85;6.05;;;;;;;;;;6314813;28;20084;-72
2023/12/24 10:22:26;;;;;;;5.78;3.00;;;;;;;;;;6313319;28;20796;-71
2023/12/24 10:25:28;;;;;;;7.10;2.85;;;;;;;;;;6311592;28;20035;-71
2023/12/24 10:28:32;;;;;;;7.97;3.45;;;;;;;;;;6308704;28;20445;-71
2023/12/24 10:31:34;;;;;;;8.10;3.65;;;;;;;;;;6284992;28;20781;-71
2023/12/24 10:34:37;;;;;;;5.63;2.75;;;;;;;;;;6283716;28;20035;-71
2023/12/24 10:37:39;;;;;;;12.00;4.85;;;;;;;;;;6285024;28;20040;-72
2023/12/24 10:40:42;;;;;;;10.65;5.95;;;;;;;;;;6306563;28;20048;-72
2023/12/24 10:43:44;;;;;;;7.28;2.55;;;;;;;;;;6294090;28;20043;-72
2023/12/24 10:46:47;;;;;;;5.82;2.20;;;;;;;;;;6296694;28;20040;-72
2023/12/24 10:49:49;;;;;;;7.85;3.80;;;;;;;;;;6307089;28;20648;-72
2023/12/24 10:52:52;;;;;;;11.63;4.55;;;;;;;;;;6305224;28;20059;-71
2023/12/24 10:56:04;;;;;;;15.15;4.57;;;;;;;;;;6288036;28;20078;-72
2023/12/24 10:59:12;;;;;;;11.65;4.95;;;;;;;;;;6307044;28;20540;-72
2023/12/24 11:02:15;;;;;;;8.88;3.38;;;;;;;;;;6304660;28;20044;-72
2023/12/24 11:05:43;;;;;;;4.18;1.95;;;;;;;;;;6309160;28;20051;-72
2023/12/24 11:08:46;;;;;;;6.47;1.90;;;;;;;;;;6317243;28;20047;-72
2023/12/24 11:11:55;;;;;;;7.72;3.35;;;;;;;;;;6325778;28;20042;-71
2023/12/24 11:15:00;;;;;;;4.32;2.45;;;;;;;;;;6308813;28;20048;-72
2023/12/24 11:18:02;;;;;;;13.75;5.25;;;;;;;;;;6282643;28;20032;-72
2023/12/24 11:21:04;;;;;;;4.07;1.85;;;;;;;;;;6313682;28;20048;-72
2023/12/24 11:24:14;;;;;;;9.52;4.45;;;;;;;;;;6312004;28;20040;-73
2023/12/24 11:27:16;;;;;;;13.20;4.15;;;;;;;;;;6273951;28;20761;-73
2023/12/24 11:30:19;;;;;;;5.03;1.80;;;;;;;;;;6284087;28;20092;-74
2023/12/24 11:33:28;;;;;;;13.07;4.97;;;;;;;;;;6298316;28;20582;-73
2023/12/24 11:36:30;;;;;;;18.10;7.95;;;;;;;;;;6310086;28;20055;-72
2023/12/24 11:40:04;;;;;;;8.02;3.22;;;;;;;;;;6276482;28;20533;-72
2023/12/24 11:43:08;;;;;;;14.90;6.90;;;;;;;;;;6311707;28;20067;-72
2023/12/24 11:46:10;;;;;;;15.98;6.05;;;;;;;;;;6300355;28;20123;-72
2023/12/24 11:49:18;;;;;;;13.10;5.43;;;;;;;;;;6319713;28;20051;-73
2023/12/24 11:52:21;;;;;;;10.82;3.60;;;;;;;;;;6306858;28;20059;-73
2023/12/24 11:55:24;;;;;;;11.70;4.07;;;;;;;;;;6292307;28;20052;-74
2023/12/24 11:58:26;;;;;;;8.45;3.33;;;;;;;;;;6330942;28;20040;-72
2023/12/24 12:01:34;;;;;;;6.53;2.67;;;;;;;;;;6322727;28;20044;-74
2023/12/24 12:04:37;;;;;;;7.25;2.42;;;;;;;;;;6291619;28;20084;-74
2023/12/24 12:07:39;;;;;;;6.35;3.17;;;;;;;;;;6319768;28;20079;-73
2023/12/24 12:10:43;;;;;;;6.80;2.75;;;;;;;;;;6322456;28;20755;-73
2023/12/24 12:13:46;;;;;;;4.80;1.85;;;;;;;;;;6321611;28;20047;-73
2023/12/24 12:16:48;;;;;;;9.80;5.15;;;;;;;;;;6315569;28;20476;-73
2023/12/24 12:19:50;;;;;;;3.85;1.90;;;;;;;;;;6301615;28;20036;-73
2023/12/24 12:22:52;;;;;;;5.03;2.80;;;;;;;;;;6318247;28;20158;-74
2023/12/24 12:25:54;;;;;;;6.63;2.65;;;;;;;;;;6304228;28;20534;-73
2023/12/24 12:28:56;;;;;;;5.20;2.38;;;;;;;;;;6302646;28;20118;-73
2023/12/24 12:32:01;;;;;;;4.30;1.95;;;;;;;;;;6298690;28;20047;-74
2023/12/24 12:35:03;;;;;;;3.75;1.60;;;;;;;;;;6317048;28;20044;-73
2023/12/24 12:38:06;;;;;;;6.22;2.45;;;;;;;;;;6303623;28;20736;-71
2023/12/24 12:41:08;;;;;;;7.03;1.80;;;;;;;;;;6297692;28;20048;-71
2023/12/24 12:44:10;;;;;;;4.55;2.50;;;;;;;;;;6318761;28;20111;-71
2023/12/24 12:47:12;;;;;;;14.90;4.47;;;;;;;;;;6301809;28;20066;-72
2023/12/24 12:50:14;;;;;;;7.45;3.55;;;;;;;;;;6317188;28;20680;-71
2023/12/24 12:53:24;;;;;;;14.13;7.13;;;;;;;;;;6299340;28;20665;-71
2023/12/24 12:56:26;;;;;;;19.80;7.40;;;;;;;;;;6304234;28;20534;-72
2023/12/24 12:59:28;;;;;;;11.88;3.95;;;;;;;;;;6312199;28;20051;-72
2023/12/24 13:02:30;;;;;;;7.95;2.50;;;;;;;;;;6318694;28;20043;-72
2023/12/24 13:05:32;;;;;;;3.95;1.90;;;;;;;;;;6297667;28;20852;-72
2023/12/24 13:08:35;;;;;;;13.77;5.18;;;;;;;;;;6285918;28;20059;-74
2023/12/24 13:11:37;;;;;;;9.73;2.50;;;;;;;;;;6302257;28;20055;-72
2023/12/24 13:14:50;;;;;;;14.90;5.05;;;;;;;;;;6321806;28;20082;-72
2023/12/24 13:17:52;;;;;;;20.70;7.10;;;;;;;;;;6287571;28;20578;-72
2023/12/24 13:20:54;;;;;;;15.23;5.80;;;;;;;;;;6299830;28;20682;-72
2023/12/24 13:23:56;;;;;;;8.32;2.40;;;;;;;;;;6298918;28;20108;-72
2023/12/24 13:26:59;;;;;;;6.35;3.92;;;;;;;;;;6301328;28;20051;-72
2023/12/24 13:30:01;;;;;;;6.35;1.73;;;;;;;;;;6326036;27;20531;-74
2023/12/24 13:33:04;;;;;;;8.73;2.75;;;;;;;;;;6294495;28;20130;-73
2023/12/24 13:36:08;;;;;;;11.05;3.92;;;;;;;;;;6313275;28;20130;-73
2023/12/24 13:39:10;;;;;;;8.82;2.95;;;;;;;;;;6289744;28;20044;-73
2023/12/24 13:42:12;;;;;;;8.65;3.72;;;;;;;;;;6308462;28;20700;-73
2023/12/24 13:45:17;;;;;;;4.78;1.90;;;;;;;;;;6311855;28;20043;-72
2023/12/24 13:48:19;;;;;;;15.57;5.88;;;;;;;;;;6307117;28;20055;-72
2023/12/24 13:51:21;;;;;;;16.23;8.63;;;;;;;;;;6310854;28;20077;-72
2023/12/24 13:54:25;;;;;;;14.82;5.72;;;;;;;;;;6305273;28;20052;-73
2023/12/24 13:57:27;;;;;;;11.80;3.53;;;;;;;;;;6295319;28;20109;-73
2023/12/24 14:00:29;;;;;;;7.22;2.90;;;;;;;;;;6311831;28;20036;-73
2023/12/24 14:03:31;;;;;;;5.65;1.95;;;;;;;;;;6299520;28;20044;-74
2023/12/24 14:06:35;;;;;;;8.43;2.90;;;;;;;;;;6293503;28;20617;-73
2023/12/24 14:09:39;;;;;;;5.80;2.85;;;;;;;;;;6293296;28;20092;-73
2023/12/24 14:12:42;;;;;;;7.35;2.42;;;;;;;;;;6284916;28;20060;-74
2023/12/24 14:15:44;;;;;;;18.02;8.30;;;;;;;;;;6282945;28;20047;-74
2023/12/24 14:18:46;;;;;;;19.65;9.82;;;;;;;;;;6288739;28;20055;-73
2023/12/24 14:21:49;;;;;;;17.60;10.02;;;;;;;;;;6275474;28;20273;-73
2023/12/24 14:24:50;;;;;;;15.38;12.13;;;;;;;;;;6323504;27;20639;-73
2023/12/24 14:27:52;;;;;;;16.80;9.60;;;;;;;;;;6311298;28;20774;-73
2023/12/24 14:30:54;;;;;;;13.80;6.35;;;;;;;;;;6290512;28;20051;-73
2023/12/24 14:33:57;;;;;;;20.25;12.38;;;;;;;;;;6265639;28;20483;-73
2023/12/24 14:36:59;;;;;;;10.00;4.70;;;;;;;;;;6266504;28;20058;-73
2023/12/24 14:40:03;;;;;;;12.70;5.80;;;;;;;;;;6298394;28;20108;-72
2023/12/24 14:43:05;;;;;;;13.68;5.53;;;;;;;;;;6266654;28;20070;-72
2023/12/24 14:46:07;;;;;;;13.63;6.95;;;;;;;;;;6290305;28;20047;-72
2023/12/24 14:49:09;;;;;;;8.85;3.15;;;;;;;;;;6283224;28;20549;-72
2023/12/24 14:52:12;;;;;;;18.27;11.07;;;;;;;;;;6292641;28;20039;-71
2023/12/24 14:55:15;;;;;;;16.17;9.48;;;;;;;;;;6311257;28;20040;-72
2023/12/24 14:58:17;;;;;;;9.95;5.30;;;;;;;;;;6293051;28;20059;-71
2023/12/24 15:01:20;;;;;;;21.92;12.07;;;;;;;;;;6303632;28;20040;-72
2023/12/24 15:04:22;;;;;;;16.25;8.85;;;;;;;;;;6308033;28;20048;-72
2023/12/24 15:07:24;;;;;;;17.77;7.53;;;;;;;;;;6295709;28;20040;-72
2023/12/24 15:10:26;;;;;;;12.43;3.65;;;;;;;;;;6282182;28;20071;-72
2023/12/24 15:13:28;;;;;;;15.65;6.95;;;;;;;;;;6266459;28;20048;-72
2023/12/24 15:16:31;;;;;;;18.20;8.15;;;;;;;;;;6303384;28;20719;-72
2023/12/24 15:19:34;;;;;;;17.48;7.25;;;;;;;;;;6305561;28;20044;-71
2023/12/24 15:22:37;;;;;;;16.85;7.30;;;;;;;;;;6308656;28;20134;-72
2023/12/24 15:25:39;;;;;;;25.88;11.25;;;;;;;;;;6301604;28;20048;-71
2023/12/24 15:28:41;;;;;;;18.50;8.63;;;;;;;;;;6307230;28;20045;-72
2023/12/24 15:31:44;;;;;;;39.95;17.92;;;;;;;;;;6290777;28;20043;-73
2023/12/24 15:34:46;;;;;;;25.48;9.55;;;;;;;;;;6309329;28;20141;-73
2023/12/24 15:37:48;;;;;;;23.05;10.40;;;;;;;;;;6290710;28;20048;-72
2023/12/24 15:40:51;;;;;;;18.52;9.13;;;;;;;;;;6309979;28;20181;-73
2023/12/24 15:43:53;;;;;;;24.00;9.73;;;;;;;;;;6310100;28;20629;-73
2023/12/24 15:46:55;;;;;;;22.88;9.70;;;;;;;;;;6284113;28;20557;-73
2023/12/24 15:50:00;;;;;;;20.48;9.43;;;;;;;;;;6277301;28;20036;-72
2023/12/24 15:53:03;;;;;;;17.10;7.75;;;;;;;;;;6310676;28;20654;-72
2023/12/24 15:56:16;;;;;;;23.13;9.68;;;;;;;;;;6307881;28;20047;-72
2023/12/24 15:59:18;;;;;;;21.13;9.52;;;;;;;;;;6313497;28;20121;-72
2023/12/24 16:02:21;;;;;;;17.85;9.23;;;;;;;;;;6312803;28;20637;-72
2023/12/24 16:05:29;;;;;;;29.48;11.35;;;;;;;;;;6325124;27;20574;-72
2023/12/24 16:08:31;;;;;;;19.58;9.32;;;;;;;;;;6314962;28;20092;-72
2023/12/24 16:11:34;;;;;;;14.00;6.65;;;;;;;;;;6304223;28;20036;-76
2023/12/24 16:14:36;;;;;;;14.15;7.00;;;;;;;;;;6296738;28;20639;-72
2023/12/24 16:17:39;;;;;;;18.15;8.77;;;;;;;;;;6291572;28;20043;-72
2023/12/24 16:20:41;;;;;;;12.18;6.47;;;;;;;;;;6296917;28;20116;-73
2023/12/24 16:23:43;;;;;;;18.58;8.18;;;;;;;;;;6316835;28;20039;-73
2023/12/24 16:26:46;;;;;;;13.13;6.60;;;;;;;;;;6311600;28;20048;-73
2023/12/24 16:29:48;;;;;;;12.68;4.65;;;;;;;;;;6310941;28;21363;-73
2023/12/24 16:32:52;;;;;;;13.32;6.03;;;;;;;;;;6293912;28;20048;-73
2023/12/24 16:35:54;;;;;;;14.45;6.90;;;;;;;;;;6288576;28;20048;-72
2023/12/24 16:38:59;;;;;;;18.40;6.82;;;;;;;;;;6310139;28;20711;-73
2023/12/24 16:42:01;;;;;;;11.45;5.63;;;;;;;;;;6318248;28;20063;-73
2023/12/24 16:45:03;;;;;;;15.77;6.80;;;;;;;;;;6310488;28;20047;-73
2023/12/24 16:48:05;;;;;;;14.27;4.22;;;;;;;;;;6310232;28;20463;-73
2023/12/24 16:51:18;;;;;;;10.77;5.68;;;;;;;;;;6317318;28;20387;-74
2023/12/24 16:54:20;;;;;;;10.80;7.03;;;;;;;;;;6303594;28;20044;-73
2023/12/24 16:57:22;;;;;;;13.05;7.20;;;;;;;;;;6295024;28;20047;-74
2023/12/24 17:00:26;;;;;;;13.55;6.75;;;;;;;;;;6321889;28;20044;-73
2023/12/24 17:03:30;;;;;;;10.43;5.60;;;;;;;;;;6316028;28;20063;-73
2023/12/24 17:06:32;;;;;;;35.13;18.25;;;;;;;;;;6303531;28;20074;-73
2023/12/24 17:09:35;;;;;;;36.25;17.23;;;;;;;;;;6315161;28;20226;-74
2023/12/24 17:12:38;;;;;;;17.75;11.43;;;;;;;;;;6309900;28;20040;-73
2023/12/24 17:15:46;;;;;;;24.52;10.77;;;;;;;;;;6293718;28;20089;-73
2023/12/24 17:18:51;;;;;;;11.95;7.60;;;;;;;;;;6289794;28;20866;-75
2023/12/24 17:21:53;;;;;;;10.80;5.65;;;;;;;;;;6294951;28;20565;-73
2023/12/24 17:24:57;;;;;;;14.73;5.40;;;;;;;;;;6312490;28;20071;-73
2023/12/24 17:27:59;;;;;;;20.45;7.10;;;;;;;;;;6295163;28;20044;-73
2023/12/24 17:31:06;;;;;;;11.90;5.95;;;;;;;;;;6313805;28;20535;-73
2023/12/24 17:34:08;;;;;;;15.30;6.32;;;;;;;;;;6296309;28;20052;-74
2023/12/24 17:37:10;;;;;;;13.68;5.55;;;;;;;;;;6303450;28;20040;-72
2023/12/24 17:40:15;;;;;;;11.90;5.03;;;;;;;;;;6295079;28;20040;-73
2023/12/24 17:43:17;;;;;;;11.48;5.07;;;;;;;;;;6309404;28;20131;-73
2023/12/24 17:46:19;;;;;;;11.73;4.78;;;;;;;;;;6290210;28;20052;-73
2023/12/24 17:49:23;;;;;;;20.05;7.25;;;;;;;;;;6294049;28;20040;-73
2023/12/24 17:52:27;;;;;;;23.88;10.10;;;;;;;;;;6269229;28;20044;-72
2023/12/24 17:55:29;;;;;;;26.50;8.98;;;;;;;;;;6297168;28;20052;-72
2023/12/24 17:58:32;;;;;;;25.90;8.30;;;;;;;;;;6299611;28;20051;-72
2023/12/24 18:01:36;;;;;;;23.48;8.25;;;;;;;;;;6312710;28;20057;-73
2023/12/24 18:04:38;;;;;;;31.30;11.55;;;;;;;;;;6320733;28;20047;-72